sensor_id;sensor_type;location;lat;lon;timestamp;pressure;altitude;pressure_sealevel;temperature;humidity
21236;BME280;10775;42.678;26.324;2022-12-07T00:00:54;98864.84;;;8.55;100.00
21236;BME280;10775;42.678;26.324;2022-12-07T00:03:20;98859.66;;;8.51;100.00
21236;BME280;10775;42.678;26.324;2022-12-07T00:05:45;98866.63;;;8.50;100.00
21236;BME280;10775;42.678;26.324;2022-12-07T00:08:11;98867.50;;;8.49;100.00
21236;BME280;10775;42.678;26.324;2022-12-07T00:10:37;98873.56;;;8.51;100.00
21236;BME280;10775;42.678;26.324;2022-12-07T00:13:02;98873.56;;;8.51;100.00
21236;BME280;10775;42.678;26.324;2022-12-07T00:15:28;98868.41;;;8.45;100.00
21236;BME280;10775;42.678;26.324;2022-12-07T00:17:53;98876.19;;;8.48;100.00
21236;BME280;10775;42.678;26.324;2022-12-07T00:20:19;98862.31;;;8.47;100.00
21236;BME280;10775;42.678;26.324;2022-12-07T00:22:45;98871.00;;;8.46;100.00
21236;BME280;10775;42.678;26.324;2022-12-07T00:25:10;98877.94;;;8.49;100.00
21236;BME280;10775;42.678;26.324;2022-12-07T00:27:36;98873.56;;;8.51;100.00
21236;BME280;10775;42.678;26.324;2022-12-07T00:30:02;98876.19;;;8.49;100.00
21236;BME280;10775;42.678;26.324;2022-12-07T00:32:28;98876.16;;;8.53;100.00
21236;BME280;10775;42.678;26.324;2022-12-07T00:34:53;98877.06;;;8.50;100.00
21236;BME280;10775;42.678;26.324;2022-12-07T00:37:19;98875.31;;;8.52;100.00
21236;BME280;10775;42.678;26.324;2022-12-07T00:39:45;98870.09;;;8.51;100.00
21236;BME280;10775;42.678;26.324;2022-12-07T00:42:11;98866.63;;;8.48;100.00
21236;BME280;10775;42.678;26.324;2022-12-07T00:44:37;98867.47;;;8.52;100.00
21236;BME280;10775;42.678;26.324;2022-12-07T00:47:02;98868.41;;;8.46;100.00
21236;BME280;10775;42.678;26.324;2022-12-07T00:49:28;98872.72;;;8.49;100.00
21236;BME280;10775;42.678;26.324;2022-12-07T00:51:54;98876.19;;;8.48;100.00
21236;BME280;10775;42.678;26.324;2022-12-07T00:54:19;98867.59;;;8.41;100.00
21236;BME280;10775;42.678;26.324;2022-12-07T00:56:45;98865.81;;;8.43;100.00
21236;BME280;10775;42.678;26.324;2022-12-07T00:59:13;98863.22;;;8.42;100.00
21236;BME280;10775;42.678;26.324;2022-12-07T01:01:41;98857.91;;;8.51;100.00
21236;BME280;10775;42.678;26.324;2022-12-07T01:04:07;98858.81;;;8.52;100.00
21236;BME280;10775;42.678;26.324;2022-12-07T01:06:34;98855.31;;;8.53;100.00
21236;BME280;10775;42.678;26.324;2022-12-07T01:09:00;98846.63;;;8.52;100.00
21236;BME280;10775;42.678;26.324;2022-12-07T01:11:28;98839.72;;;8.48;100.00
21236;BME280;10775;42.678;26.324;2022-12-07T01:13:56;98837.09;;;8.48;100.00
21236;BME280;10775;42.678;26.324;2022-12-07T01:16:25;98832.78;;;8.45;100.00
21236;BME280;10775;42.678;26.324;2022-12-07T01:18:53;98830.19;;;8.45;100.00
21236;BME280;10775;42.678;26.324;2022-12-07T01:21:25;98826.72;;;8.45;100.00
21236;BME280;10775;42.678;26.324;2022-12-07T01:23:52;98825.88;;;8.44;100.00
21236;BME280;10775;42.678;26.324;2022-12-07T01:26:21;98818.03;;;8.44;100.00
21236;BME280;10775;42.678;26.324;2022-12-07T01:28:47;98814.59;;;8.42;100.00
21236;BME280;10775;42.678;26.324;2022-12-07T01:31:15;98819.78;;;8.41;100.00
21236;BME280;10775;42.678;26.324;2022-12-07T01:37:03;98809.44;;;8.30;100.00
21236;BME280;10775;42.678;26.324;2022-12-07T01:39:28;98798.25;;;8.17;100.00
21236;BME280;10775;42.678;26.324;2022-12-07T01:41:54;98814.78;;;8.15;100.00
21236;BME280;10775;42.678;26.324;2022-12-07T01:44:23;98805.28;;;8.11;100.00
21236;BME280;10775;42.678;26.324;2022-12-07T01:49:18;98808.78;;;8.05;100.00
21236;BME280;10775;42.678;26.324;2022-12-07T01:51:47;98802.75;;;8.00;100.00
21236;BME280;10775;42.678;26.324;2022-12-07T01:54:14;98809.69;;;7.99;100.00
21236;BME280;10775;42.678;26.324;2022-12-07T01:56:45;98791.50;;;7.95;100.00
21236;BME280;10775;42.678;26.324;2022-12-07T01:59:13;98791.56;;;7.89;100.00
21236;BME280;10775;42.678;26.324;2022-12-07T02:01:38;98781.22;;;7.78;100.00
21236;BME280;10775;42.678;26.324;2022-12-07T02:04:05;98795.06;;;7.81;100.00
21236;BME280;10775;42.678;26.324;2022-12-07T02:06:31;98790.78;;;7.76;100.00
21236;BME280;10775;42.678;26.324;2022-12-07T02:08:57;98792.53;;;7.69;100.00
21236;BME280;10775;42.678;26.324;2022-12-07T02:11:22;98789.94;;;7.72;100.00
21236;BME280;10775;42.678;26.324;2022-12-07T02:13:48;98782.94;;;7.79;100.00
21236;BME280;10775;42.678;26.324;2022-12-07T02:19:20;98796.78;;;7.84;100.00
21236;BME280;10775;42.678;26.324;2022-12-07T02:21:56;98789.84;;;7.88;100.00
21236;BME280;10775;42.678;26.324;2022-12-07T02:24:52;98788.94;;;7.89;100.00
21236;BME280;10775;42.678;26.324;2022-12-07T02:30:11;98786.31;;;7.93;100.00
21236;BME280;10775;42.678;26.324;2022-12-07T02:35:30;98788.88;;;7.95;100.00
21236;BME280;10775;42.678;26.324;2022-12-07T02:40:47;98786.31;;;7.93;100.00
21236;BME280;10775;42.678;26.324;2022-12-07T02:43:18;98783.69;;;7.95;100.00
21236;BME280;10775;42.678;26.324;2022-12-07T02:45:45;98779.44;;;7.88;100.00
21236;BME280;10775;42.678;26.324;2022-12-07T02:48:16;98773.44;;;7.73;100.00
21236;BME280;10775;42.678;26.324;2022-12-07T02:50:49;98766.53;;;7.72;100.00
21236;BME280;10775;42.678;26.324;2022-12-07T02:53:36;98770.78;;;7.82;100.00
21236;BME280;10775;42.678;26.324;2022-12-07T02:59:07;98766.53;;;7.66;100.00
21236;BME280;10775;42.678;26.324;2022-12-07T03:04:57;98778.50;;;7.92;100.00
21236;BME280;10775;42.678;26.324;2022-12-07T03:07:43;98766.41;;;7.88;100.00
21236;BME280;10775;42.678;26.324;2022-12-07T03:10:35;98770.72;;;7.89;100.00
21236;BME280;10775;42.678;26.324;2022-12-07T03:13:17;98766.41;;;7.84;100.00
21236;BME280;10775;42.678;26.324;2022-12-07T03:15:52;98771.63;;;7.88;100.00
21236;BME280;10775;42.678;26.324;2022-12-07T03:18:22;98772.44;;;7.90;100.00
21236;BME280;10775;42.678;26.324;2022-12-07T03:20:51;98774.19;;;7.89;100.00
21236;BME280;10775;42.678;26.324;2022-12-07T03:23:19;98774.16;;;7.92;100.00
21236;BME280;10775;42.678;26.324;2022-12-07T03:25:49;98769.00;;;7.84;100.00
21236;BME280;10775;42.678;26.324;2022-12-07T03:28:20;98768.16;;;7.86;100.00
21236;BME280;10775;42.678;26.324;2022-12-07T03:31:13;98772.50;;;7.85;100.00
21236;BME280;10775;42.678;26.324;2022-12-07T03:33:49;98767.25;;;7.87;100.00
21236;BME280;10775;42.678;26.324;2022-12-07T03:36:30;98762.03;;;7.91;100.00
21236;BME280;10775;42.678;26.324;2022-12-07T03:39:07;98770.63;;;8.01;100.00
21236;BME280;10775;42.678;26.324;2022-12-07T03:41:36;98766.28;;;8.03;100.00
21236;BME280;10775;42.678;26.324;2022-12-07T03:44:03;98762.78;;;8.04;100.00
21236;BME280;10775;42.678;26.324;2022-12-07T03:46:41;98763.69;;;8.01;100.00
21236;BME280;10775;42.678;26.324;2022-12-07T03:51:56;98768.88;;;8.01;100.00
21236;BME280;10775;42.678;26.324;2022-12-07T03:54:28;98774.06;;;8.06;100.00
21236;BME280;10775;42.678;26.324;2022-12-07T03:56:56;98761.94;;;8.03;100.00
21236;BME280;10775;42.678;26.324;2022-12-07T03:59:23;98762.78;;;8.05;100.00
21236;BME280;10775;42.678;26.324;2022-12-07T04:01:54;98752.38;;;8.04;100.00
21236;BME280;10775;42.678;26.324;2022-12-07T04:04:22;98751.53;;;8.03;100.00
21236;BME280;10775;42.678;26.324;2022-12-07T04:06:48;98752.41;;;8.01;100.00
21236;BME280;10775;42.678;26.324;2022-12-07T04:09:14;98755.94;;;7.94;100.00
21236;BME280;10775;42.678;26.324;2022-12-07T04:11:40;98757.72;;;7.89;100.00
21236;BME280;10775;42.678;26.324;2022-12-07T04:14:05;98751.59;;;7.94;100.00
21236;BME280;10775;42.678;26.324;2022-12-07T04:16:47;98749.84;;;7.96;100.00
21236;BME280;10775;42.678;26.324;2022-12-07T04:19:13;98752.41;;;8.01;100.00
21236;BME280;10775;42.678;26.324;2022-12-07T04:21:39;98744.59;;;8.01;100.00
21236;BME280;10775;42.678;26.324;2022-12-07T04:24:05;98755.03;;;7.98;100.00
21236;BME280;10775;42.678;26.324;2022-12-07T04:26:31;98742.03;;;7.96;100.00
21236;BME280;10775;42.678;26.324;2022-12-07T04:28:56;98751.56;;;7.99;100.00
21236;BME280;10775;42.678;26.324;2022-12-07T04:31:22;98748.91;;;8.02;100.00
21236;BME280;10775;42.678;26.324;2022-12-07T04:33:48;98742.00;;;8.01;100.00
21236;BME280;10775;42.678;26.324;2022-12-07T04:36:14;98742.00;;;8.01;100.00
21236;BME280;10775;42.678;26.324;2022-12-07T04:38:39;98744.56;;;8.04;100.00
21236;BME280;10775;42.678;26.324;2022-12-07T04:41:09;98752.38;;;8.02;100.00
21236;BME280;10775;42.678;26.324;2022-12-07T04:43:35;98750.66;;;8.00;100.00
21236;BME280;10775;42.678;26.324;2022-12-07T04:46:01;98748.91;;;8.02;100.00
21236;BME280;10775;42.678;26.324;2022-12-07T04:48:27;98753.22;;;8.06;100.00
21236;BME280;10775;42.678;26.324;2022-12-07T04:50:52;98752.31;;;8.10;100.00
21236;BME280;10775;42.678;26.324;2022-12-07T04:53:18;98750.59;;;8.09;100.00
21236;BME280;10775;42.678;26.324;2022-12-07T04:55:44;98747.09;;;8.12;100.00
21236;BME280;10775;42.678;26.324;2022-12-07T04:58:11;98750.53;;;8.15;100.00
21236;BME280;10775;42.678;26.324;2022-12-07T05:00:36;98747.97;;;8.14;100.00
21236;BME280;10775;42.678;26.324;2022-12-07T05:03:02;98746.25;;;8.11;100.00
21236;BME280;10775;42.678;26.324;2022-12-07T05:05:28;98742.78;;;8.11;100.00
21236;BME280;10775;42.678;26.324;2022-12-07T05:07:53;98754.91;;;8.12;100.00
21236;BME280;10775;42.678;26.324;2022-12-07T05:10:19;98751.44;;;8.11;100.00
21236;BME280;10775;42.678;26.324;2022-12-07T05:12:44;98750.59;;;8.09;100.00
21236;BME280;10775;42.678;26.324;2022-12-07T05:15:11;98755.81;;;8.09;100.00
21236;BME280;10775;42.678;26.324;2022-12-07T05:17:37;98754.13;;;8.03;100.00
21236;BME280;10775;42.678;26.324;2022-12-07T05:20:03;98747.25;;;7.98;100.00
21236;BME280;10775;42.678;26.324;2022-12-07T05:22:29;98748.97;;;7.94;100.00
21236;BME280;10775;42.678;26.324;2022-12-07T05:24:55;98753.31;;;7.97;100.00
21236;BME280;10775;42.678;26.324;2022-12-07T05:27:20;98749.84;;;7.96;100.00
21236;BME280;10775;42.678;26.324;2022-12-07T05:29:46;98746.34;;;7.97;100.00
21236;BME280;10775;42.678;26.324;2022-12-07T05:32:12;98758.53;;;7.94;100.00
21236;BME280;10775;42.678;26.324;2022-12-07T05:34:37;98749.91;;;7.87;100.00
21236;BME280;10775;42.678;26.324;2022-12-07T05:37:03;98743.91;;;7.79;100.00
21236;BME280;10775;42.678;26.324;2022-12-07T05:39:28;98747.31;;;7.86;100.00
21236;BME280;10775;42.678;26.324;2022-12-07T05:41:54;98747.28;;;7.87;100.00
21236;BME280;10775;42.678;26.324;2022-12-07T05:44:42;98749.00;;;7.93;100.00
21236;BME280;10775;42.678;26.324;2022-12-07T05:47:07;98750.69;;;7.97;100.00
21236;BME280;10775;42.678;26.324;2022-12-07T05:49:33;98745.47;;;8.01;100.00
21236;BME280;10775;42.678;26.324;2022-12-07T05:51:59;98754.09;;;8.05;100.00
21236;BME280;10775;42.678;26.324;2022-12-07T05:54:25;98756.69;;;8.08;100.00
21236;BME280;10775;42.678;26.324;2022-12-07T05:56:50;98768.84;;;8.06;100.00
21236;BME280;10775;42.678;26.324;2022-12-07T05:59:16;98762.81;;;7.99;100.00
21236;BME280;10775;42.678;26.324;2022-12-07T06:01:53;98764.59;;;7.94;100.00
21236;BME280;10775;42.678;26.324;2022-12-07T06:04:19;98762.84;;;7.98;100.00
21236;BME280;10775;42.678;26.324;2022-12-07T06:06:44;98771.38;;;8.18;100.00
21236;BME280;10775;42.678;26.324;2022-12-07T06:09:10;98767.72;;;8.36;100.00
21236;BME280;10775;42.678;26.324;2022-12-07T06:11:36;98772.84;;;8.47;100.00
21236;BME280;10775;42.678;26.324;2022-12-07T06:14:20;98771.06;;;8.52;100.00
21236;BME280;10775;42.678;26.324;2022-12-07T06:16:45;98762.44;;;8.45;100.00
21236;BME280;10775;42.678;26.324;2022-12-07T06:19:11;98770.28;;;8.44;100.00
21236;BME280;10775;42.678;26.324;2022-12-07T06:21:37;98772.97;;;8.32;100.00
21236;BME280;10775;42.678;26.324;2022-12-07T06:24:03;98775.69;;;8.21;100.00
21236;BME280;10775;42.678;26.324;2022-12-07T06:26:28;98778.34;;;8.12;100.00
21236;BME280;10775;42.678;26.324;2022-12-07T06:28:54;98783.53;;;8.16;100.00
21236;BME280;10775;42.678;26.324;2022-12-07T06:31:19;98774.78;;;8.20;100.00
21236;BME280;10775;42.678;26.324;2022-12-07T06:33:45;98779.91;;;8.33;100.00
21236;BME280;10775;42.678;26.324;2022-12-07T06:36:10;98781.59;;;8.40;100.00
21236;BME280;10775;42.678;26.324;2022-12-07T06:38:37;98772.91;;;8.44;100.00
21236;BME280;10775;42.678;26.324;2022-12-07T06:41:02;98777.13;;;8.53;100.00
21236;BME280;10775;42.678;26.324;2022-12-07T06:43:28;98778.72;;;8.66;100.00
21236;BME280;10775;42.678;26.324;2022-12-07T06:45:54;98771.63;;;8.79;100.00
21236;BME280;10775;42.678;26.324;2022-12-07T06:48:19;98780.13;;;8.95;100.00
21236;BME280;10775;42.678;26.324;2022-12-07T06:50:46;98783.31;;;9.20;100.00
21236;BME280;10775;42.678;26.324;2022-12-07T06:53:11;98776.28;;;9.26;100.00
21236;BME280;10775;42.678;26.324;2022-12-07T06:55:37;98786.47;;;9.43;100.00
21236;BME280;10775;42.678;26.324;2022-12-07T06:58:03;98779.28;;;9.61;100.00
21236;BME280;10775;42.678;26.324;2022-12-07T07:00:29;98780.88;;;9.72;100.00
21236;BME280;10775;42.678;26.324;2022-12-07T07:02:54;98778.31;;;9.69;100.00
21236;BME280;10775;42.678;26.324;2022-12-07T07:05:20;98773.03;;;9.71;100.00
21236;BME280;10775;42.678;26.324;2022-12-07T07:07:50;98775.56;;;9.77;100.00
21236;BME280;10775;42.678;26.324;2022-12-07T07:10:16;98778.19;;;9.75;100.00
21236;BME280;10775;42.678;26.324;2022-12-07T07:12:41;98782.69;;;9.66;100.00
21236;BME280;10775;42.678;26.324;2022-12-07T07:15:07;98779.28;;;9.61;100.00
21236;BME280;10775;42.678;26.324;2022-12-07T07:17:33;98781.78;;;9.68;100.00
21236;BME280;10775;42.678;26.324;2022-12-07T07:19:58;98778.25;;;9.71;100.00
21236;BME280;10775;42.678;26.324;2022-12-07T07:22:24;98782.47;;;9.81;100.00
21236;BME280;10775;42.678;26.324;2022-12-07T07:24:50;98782.41;;;9.86;100.00
21236;BME280;10775;42.678;26.324;2022-12-07T07:27:16;98781.47;;;9.90;100.00
21236;BME280;10775;42.678;26.324;2022-12-07T07:29:41;98777.84;;;9.97;100.00
21236;BME280;10775;42.678;26.324;2022-12-07T07:32:07;98772.50;;;10.05;100.00
21236;BME280;10775;42.678;26.324;2022-12-07T07:34:33;98776.78;;;10.10;100.00
21236;BME280;10775;42.678;26.324;2022-12-07T07:36:59;98778.09;;;10.37;100.00
21236;BME280;10775;42.678;26.324;2022-12-07T07:39:24;98772.72;;;10.47;100.00
21236;BME280;10775;42.678;26.324;2022-12-07T07:41:50;98783.09;;;10.51;100.00
21236;BME280;10775;42.678;26.324;2022-12-07T07:44:16;98782.03;;;10.60;100.00
21236;BME280;10775;42.678;26.324;2022-12-07T07:46:41;98779.34;;;10.64;100.00
21236;BME280;10775;42.678;26.324;2022-12-07T07:49:08;98780.00;;;10.76;100.00
21236;BME280;10775;42.678;26.324;2022-12-07T07:51:34;98774.53;;;10.90;100.00
21236;BME280;10775;42.678;26.324;2022-12-07T07:54:00;98772.31;;;11.12;100.00
21236;BME280;10775;42.678;26.324;2022-12-07T07:56:25;98772.69;;;10.93;100.00
21236;BME280;10775;42.678;26.324;2022-12-07T07:58:55;98768.78;;;11.14;100.00
21236;BME280;10775;42.678;26.324;2022-12-07T08:01:20;98768.31;;;10.94;100.00
21236;BME280;10775;42.678;26.324;2022-12-07T08:03:46;98769.84;;;11.04;100.00
21236;BME280;10775;42.678;26.324;2022-12-07T08:06:12;98764.13;;;11.27;100.00
21236;BME280;10775;42.678;26.324;2022-12-07T08:08:38;98768.16;;;11.01;100.00
21236;BME280;10775;42.678;26.324;2022-12-07T08:11:07;98767.13;;;11.10;100.00
21236;BME280;10775;42.678;26.324;2022-12-07T08:13:33;98777.34;;;11.22;100.00
21236;BME280;10775;42.678;26.324;2022-12-07T08:16:03;98777.53;;;11.13;100.00
21236;BME280;10775;42.678;26.324;2022-12-07T08:18:29;98780.28;;;11.07;100.00
21236;BME280;10775;42.678;26.324;2022-12-07T08:20:59;98771.28;;;11.59;100.00
21236;BME280;10775;42.678;26.324;2022-12-07T08:23:28;98776.63;;;11.54;100.00
21236;BME280;10775;42.678;26.324;2022-12-07T08:25:54;98774.19;;;11.47;100.00
21236;BME280;10775;42.678;26.324;2022-12-07T08:28:20;98777.13;;;11.70;100.00
21236;BME280;10775;42.678;26.324;2022-12-07T08:30:45;98779.41;;;11.48;100.00
21236;BME280;10775;42.678;26.324;2022-12-07T08:33:11;98773.31;;;11.48;100.00
21236;BME280;10775;42.678;26.324;2022-12-07T08:35:36;98778.72;;;11.40;100.00
21236;BME280;10775;42.678;26.324;2022-12-07T08:38:03;98779.31;;;11.53;100.00
21236;BME280;10775;42.678;26.324;2022-12-07T08:40:29;98783.31;;;11.68;100.00
21236;BME280;10775;42.678;26.324;2022-12-07T08:42:55;98770.47;;;11.57;100.00
21236;BME280;10775;42.678;26.324;2022-12-07T08:45:21;98773.91;;;11.59;100.00
21236;BME280;10775;42.678;26.324;2022-12-07T08:47:52;98771.28;;;11.61;100.00
21236;BME280;10775;42.678;26.324;2022-12-07T08:50:21;98777.44;;;11.58;100.00
21236;BME280;10775;42.678;26.324;2022-12-07T08:52:56;98770.56;;;11.52;100.00
21236;BME280;10775;42.678;26.324;2022-12-07T08:55:25;98772.13;;;11.61;100.00
21236;BME280;10775;42.678;26.324;2022-12-07T08:57:51;98775.09;;;11.86;100.00
21236;BME280;10775;42.678;26.324;2022-12-07T09:00:17;98764.03;;;11.70;100.00
21236;BME280;10775;42.678;26.324;2022-12-07T09:02:43;98766.56;;;11.75;100.00
21236;BME280;10775;42.678;26.324;2022-12-07T09:05:10;98758.28;;;11.93;100.00
21236;BME280;10775;42.678;26.324;2022-12-07T09:07:36;98757.34;;;11.96;100.00
21236;BME280;10775;42.678;26.324;2022-12-07T09:10:03;98753.50;;;12.11;100.00
21236;BME280;10775;42.678;26.324;2022-12-07T09:12:30;98752.38;;;12.55;100.00
21236;BME280;10775;42.678;26.324;2022-12-07T09:14:56;98750.28;;;12.68;100.00
21236;BME280;10775;42.678;26.324;2022-12-07T09:17:21;98738.22;;;12.92;100.00
21236;BME280;10775;42.678;26.324;2022-12-07T09:19:47;98737.00;;;12.73;100.00
21236;BME280;10775;42.678;26.324;2022-12-07T09:22:13;98737.16;;;12.68;100.00
21236;BME280;10775;42.678;26.324;2022-12-07T09:24:38;98729.03;;;12.77;100.00
21236;BME280;10775;42.678;26.324;2022-12-07T09:27:04;98725.13;;;12.91;100.00
21236;BME280;10775;42.678;26.324;2022-12-07T09:29:30;98719.91;;;13.20;100.00
21236;BME280;10775;42.678;26.324;2022-12-07T09:31:56;98727.78;;;13.20;100.00
21236;BME280;10775;42.678;26.324;2022-12-07T09:34:21;98729.69;;;13.15;100.00
21236;BME280;10775;42.678;26.324;2022-12-07T09:36:47;98713.75;;;13.21;100.00
21236;BME280;10775;42.678;26.324;2022-12-07T09:39:13;98712.47;;;13.07;100.00
21236;BME280;10775;42.678;26.324;2022-12-07T09:41:43;98714.88;;;12.83;100.00
21236;BME280;10775;42.678;26.324;2022-12-07T09:44:13;98710.66;;;12.77;100.00
21236;BME280;10775;42.678;26.324;2022-12-07T09:46:41;98709.19;;;12.98;100.00
21236;BME280;10775;42.678;26.324;2022-12-07T09:49:20;98706.88;;;13.17;100.00
21236;BME280;10775;42.678;26.324;2022-12-07T09:51:46;98696.09;;;13.28;100.00
21236;BME280;10775;42.678;26.324;2022-12-07T09:54:15;98697.78;;;13.29;100.00
21236;BME280;10775;42.678;26.324;2022-12-07T09:56:41;98692.31;;;13.07;99.10
21236;BME280;10775;42.678;26.324;2022-12-07T09:59:16;98694.56;;;13.19;99.94
21236;BME280;10775;42.678;26.324;2022-12-07T10:01:43;98692.59;;;13.26;95.99
21236;BME280;10775;42.678;26.324;2022-12-07T10:06:38;98687.72;;;13.43;100.00
21236;BME280;10775;42.678;26.324;2022-12-07T10:09:15;98684.38;;;13.38;98.28
21236;BME280;10775;42.678;26.324;2022-12-07T10:12:07;98689.03;;;13.30;95.92
21236;BME280;10775;42.678;26.324;2022-12-07T10:14:36;98684.53;;;13.04;97.39
21236;BME280;10775;42.678;26.324;2022-12-07T10:17:02;98684.16;;;12.87;98.71
21236;BME280;10775;42.678;26.324;2022-12-07T10:19:48;98678.59;;;12.97;97.28
21236;BME280;10775;42.678;26.324;2022-12-07T10:22:16;98670.97;;;12.90;94.28
21236;BME280;10775;42.678;26.324;2022-12-07T10:24:47;98673.16;;;13.03;96.26
21236;BME280;10775;42.678;26.324;2022-12-07T10:27:20;98670.88;;;13.21;95.14
21236;BME280;10775;42.678;26.324;2022-12-07T10:29:49;98673.56;;;13.19;93.14
21236;BME280;10775;42.678;26.324;2022-12-07T10:34:42;98653.34;;;13.23;90.40
21236;BME280;10775;42.678;26.324;2022-12-07T10:39:53;98658.56;;;12.95;94.89
21236;BME280;10775;42.678;26.324;2022-12-07T10:42:30;98667.28;;;12.95;93.64
21236;BME280;10775;42.678;26.324;2022-12-07T10:45:14;98658.91;;;12.82;91.16
21236;BME280;10775;42.678;26.324;2022-12-07T10:48:01;98660.94;;;13.02;89.82
21236;BME280;10775;42.678;26.324;2022-12-07T10:50:57;98658.03;;;12.83;88.78
21236;BME280;10775;42.678;26.324;2022-12-07T10:53:43;98648.63;;;12.76;88.58
21236;BME280;10775;42.678;26.324;2022-12-07T11:16:27;98637.81;;;12.86;91.16
21236;BME280;10775;42.678;26.324;2022-12-07T11:19:06;98635.94;;;12.91;90.70
21236;BME280;10775;42.678;26.324;2022-12-07T11:24:25;98627.41;;;12.84;88.43
21236;BME280;10775;42.678;26.324;2022-12-07T11:37:37;98617.75;;;13.14;91.17
21236;BME280;10775;42.678;26.324;2022-12-07T11:42:43;98615.97;;;13.15;95.70
21236;BME280;10775;42.678;26.324;2022-12-07T11:45:18;98602.16;;;13.08;91.91
21236;BME280;10775;42.678;26.324;2022-12-07T11:47:53;98599.69;;;13.03;95.67
21236;BME280;10775;42.678;26.324;2022-12-07T11:55:43;98601.69;;;12.95;99.57
21236;BME280;10775;42.678;26.324;2022-12-07T11:58:48;98605.09;;;12.99;100.00
21236;BME280;10775;42.678;26.324;2022-12-07T12:06:29;98600.06;;;13.19;100.00
21236;BME280;10775;42.678;26.324;2022-12-07T12:09:26;98595.38;;;13.31;100.00
21236;BME280;10775;42.678;26.324;2022-12-07T12:15:01;98593.47;;;13.34;100.00
21236;BME280;10775;42.678;26.324;2022-12-07T12:25:55;98579.47;;;13.35;100.00
21236;BME280;10775;42.678;26.324;2022-12-07T12:28:41;98576.59;;;13.43;100.00
21236;BME280;10775;42.678;26.324;2022-12-07T12:31:28;98572.03;;;13.48;100.00
21236;BME280;10775;42.678;26.324;2022-12-07T12:34:01;98561.03;;;13.09;93.01
21236;BME280;10775;42.678;26.324;2022-12-07T12:36:47;98564.44;;;13.12;100.00
21236;BME280;10775;42.678;26.324;2022-12-07T12:39:17;98557.84;;;12.99;100.00
21236;BME280;10775;42.678;26.324;2022-12-07T12:46:52;98561.97;;;12.78;100.00
21236;BME280;10775;42.678;26.324;2022-12-07T12:54:30;98566.72;;;12.67;100.00
21236;BME280;10775;42.678;26.324;2022-12-07T13:02:38;98555.19;;;12.43;100.00
21236;BME280;10775;42.678;26.324;2022-12-07T13:31:39;98566.22;;;12.54;100.00
21236;BME280;10775;42.678;26.324;2022-12-07T13:34:28;98562.03;;;12.48;100.00
21236;BME280;10775;42.678;26.324;2022-12-07T13:36:54;98556.81;;;12.47;100.00
21236;BME280;10775;42.678;26.324;2022-12-07T13:39:23;98561.28;;;12.43;100.00
21236;BME280;10775;42.678;26.324;2022-12-07T13:41:54;98562.41;;;12.34;100.00
21236;BME280;10775;42.678;26.324;2022-12-07T13:44:23;98566.84;;;12.32;100.00
21236;BME280;10775;42.678;26.324;2022-12-07T13:47:06;98563.66;;;12.21;100.00
21236;BME280;10775;42.678;26.324;2022-12-07T13:49:55;98574.00;;;12.27;100.00
21236;BME280;10775;42.678;26.324;2022-12-07T13:57:25;98574.13;;;12.23;100.00
21236;BME280;10775;42.678;26.324;2022-12-07T13:59:52;98568.09;;;12.19;100.00
21236;BME280;10775;42.678;26.324;2022-12-07T14:02:25;98570.78;;;12.17;100.00
21236;BME280;10775;42.678;26.324;2022-12-07T14:05:05;98579.47;;;12.18;100.00
21236;BME280;10775;42.678;26.324;2022-12-07T14:07:33;98577.72;;;12.18;100.00
21236;BME280;10775;42.678;26.324;2022-12-07T14:10:02;98576.88;;;12.18;100.00
21236;BME280;10775;42.678;26.324;2022-12-07T14:12:29;98579.59;;;12.13;100.00
21236;BME280;10775;42.678;26.324;2022-12-07T14:14:56;98588.31;;;12.14;100.00
21236;BME280;10775;42.678;26.324;2022-12-07T14:17:24;98581.34;;;12.14;100.00
21236;BME280;10775;42.678;26.324;2022-12-07T14:20:02;98584.13;;;12.08;100.00
21236;BME280;10775;42.678;26.324;2022-12-07T14:22:37;98585.91;;;12.06;100.00
21236;BME280;10775;42.678;26.324;2022-12-07T14:25:22;98579.69;;;12.10;100.00
21236;BME280;10775;42.678;26.324;2022-12-07T14:27:59;98584.13;;;12.08;100.00
21236;BME280;10775;42.678;26.324;2022-12-07T14:30:30;98584.09;;;12.10;100.00
21236;BME280;10775;42.678;26.324;2022-12-07T14:33:02;98579.88;;;12.04;100.00
21236;BME280;10775;42.678;26.324;2022-12-07T14:35:29;98584.41;;;11.98;100.00
21236;BME280;10775;42.678;26.324;2022-12-07T14:37:55;98581.06;;;11.92;100.00
21236;BME280;10775;42.678;26.324;2022-12-07T14:40:23;98584.22;;;11.71;100.00
21236;BME280;10775;42.678;26.324;2022-12-07T14:43:16;98581.22;;;11.85;100.00
21236;BME280;10775;42.678;26.324;2022-12-07T14:45:42;98580.31;;;11.87;100.00
21236;BME280;10775;42.678;26.324;2022-12-07T14:48:12;98583.72;;;11.91;100.00
21236;BME280;10775;42.678;26.324;2022-12-07T14:50:39;98579.53;;;11.84;100.00
21236;BME280;10775;42.678;26.324;2022-12-07T14:53:15;98573.38;;;11.86;100.00
21236;BME280;10775;42.678;26.324;2022-12-07T14:55:41;98579.66;;;11.78;100.00
21236;BME280;10775;42.678;26.324;2022-12-07T14:58:27;98581.56;;;11.72;100.00
21236;BME280;10775;42.678;26.324;2022-12-07T15:00:53;98575.66;;;11.64;100.00
21236;BME280;10775;42.678;26.324;2022-12-07T15:03:18;98578.47;;;11.57;100.00
21236;BME280;10775;42.678;26.324;2022-12-07T15:05:44;98577.69;;;11.53;100.00
21236;BME280;10775;42.678;26.324;2022-12-07T15:08:12;98577.63;;;11.56;100.00
21236;BME280;10775;42.678;26.324;2022-12-07T15:10:38;98577.81;;;11.48;100.00
21236;BME280;10775;42.678;26.324;2022-12-07T15:13:05;98580.44;;;11.48;100.00
21236;BME280;10775;42.678;26.324;2022-12-07T15:15:52;98594.84;;;11.30;100.00